Blue Bay — V2CE6 — position and weather

sailwx.info

Track history (hours):
 
Tides and Currents Weather Stations Pressure Air Temp Water Temp Dewpoint Dewpoint Depression Visibility Wind Speed Wind Dir Waves Ship Positions

Blue Bay

Last reported at 2015-May-03 06:17 UTC. Time now 2015-May-03 10:50 UTC.
Position N 51°22' W 003°14'.

Length 89 m; draft 3.5 m.

Type: Cargo ship. MMSI: 304519000.

Date/timePositionNaut miles runAvg speedWind from/ knotsBaromVisibWave heightAir tempDewpointWater temp
2015-May-03 06:17N 51°22' W 003°14'78 7.0
2015-May-02 19:11N 50°49' W 005°06'4 6.4
2015-May-02 18:33N 50°46' W 005°11'8 8.1
2015-May-02 17:33N 50°40' W 005°20'1111.0
2015-May-02 16:33N 50°32' W 005°33'455 9.7
2015-Apr-30 17:33N 43°22' W 001°56'1 1.0
2015-Apr-30 16:22N 43°21' W 001°55'0 0.0
2015-Apr-30 15:31N 43°21' W 001°55'0 0.0
2015-Apr-30 14:19N 43°21' W 001°55'0 0.1
2015-Apr-30 12:22N 43°21' W 001°55'0 0.0
2015-Apr-30 07:10N 43°21' W 001°55'0 0.0
2015-Apr-30 06:25N 43°21' W 001°55'0 0.0
2015-Apr-30 02:19N 43°21' W 001°55'0 0.0
2015-Apr-29 22:16N 43°21' W 001°55'0 0.0
2015-Apr-29 20:22N 43°21' W 001°55'0 0.0
2015-Apr-29 19:34N 43°21' W 001°55'2 2.0
2015-Apr-29 18:31N 43°19' W 001°55'0 0.0
2015-Apr-29 17:27N 43°19' W 001°55'0 0.0
2015-Apr-29 16:30N 43°19' W 001°55'0 0.0
2015-Apr-29 15:30N 43°19' W 001°55'0 0.0
2015-Apr-29 14:33N 43°19' W 001°55'0 0.0
2015-Apr-29 13:30N 43°19' W 001°55'0 0.0
2015-Apr-29 12:30N 43°19' W 001°55'0 0.0
2015-Apr-29 11:30N 43°19' W 001°55'0 0.0
2015-Apr-29 10:33N 43°19' W 001°55'0 0.0
2015-Apr-29 09:33N 43°19' W 001°55'0 0.0
2015-Apr-29 08:33N 43°19' W 001°55'0 0.0
2015-Apr-29 07:33N 43°19' W 001°55'0 0.0
2015-Apr-29 06:27N 43°19' W 001°55'0 0.0
2015-Apr-29 05:30N 43°19' W 001°55'0 0.0
2015-Apr-29 04:33N 43°19' W 001°55'0 0.0
2015-Apr-29 03:33N 43°19' W 001°55'0 0.0
2015-Apr-29 02:33N 43°19' W 001°55'0 0.0
2015-Apr-29 01:30N 43°19' W 001°55'0 0.0
2015-Apr-29 00:30N 43°19' W 001°55'0 0.0
2015-Apr-28 23:33N 43°19' W 001°55'0 0.0
2015-Apr-28 22:30N 43°19' W 001°55'0 0.0
2015-Apr-28 21:24N 43°19' W 001°55'0 0.0
2015-Apr-28 20:33N 43°19' W 001°55'0 0.0
2015-Apr-28 19:30N 43°19' W 001°55'0 0.0
2015-Apr-28 18:24N 43°19' W 001°55'0 0.0
2015-Apr-28 17:33N 43°19' W 001°55'0 0.0
2015-Apr-28 16:33N 43°19' W 001°55'0 0.0
2015-Apr-28 15:30N 43°19' W 001°55'0 0.0
2015-Apr-28 14:33N 43°19' W 001°55'0 0.0
2015-Apr-28 13:24N 43°19' W 001°55'0 0.0
2015-Apr-28 12:30N 43°19' W 001°55'0 0.0
2015-Apr-28 11:30N 43°19' W 001°55'2 1.5
2015-Apr-28 10:15N 43°21' W 001°56'1 1.3
2015-Apr-28 09:33N 43°21' W 001°57'2 2.1
2015-Apr-28 08:32N 43°23' W 001°58'  
2015-Apr-26 02:27N 51°14' W 007°49'9 9.9
2015-Apr-26 01:33N 51°22' W 007°53'10 9.8
2015-Apr-26 00:34N 51°31' W 008°01'10 9.8
2015-Apr-25 23:33N 51°39' W 008°09'10 9.7
2015-Apr-25 22:33N 51°48' W 008°16'5 4.6
2015-Apr-25 21:32N 51°52' W 008°20'0 0.0
2015-Apr-25 20:32N 51°52' W 008°20'0 0.0
2015-Apr-25 19:32N 51°52' W 008°20'0 0.0
2015-Apr-25 18:32N 51°52' W 008°20'0 0.0
2015-Apr-25 17:32N 51°52' W 008°20'0 0.0
2015-Apr-25 16:32N 51°52' W 008°20'0 0.0
2015-Apr-25 15:32N 51°52' W 008°20'0 0.0
2015-Apr-25 14:32N 51°52' W 008°20'0 0.0
2015-Apr-25 13:32N 51°52' W 008°20'0 0.0
2015-Apr-25 12:32N 51°52' W 008°20'0 0.0
2015-Apr-25 11:32N 51°52' W 008°20'0 0.0
2015-Apr-25 10:32N 51°52' W 008°20'0 0.0
2015-Apr-25 09:32N 51°52' W 008°20'0 0.0
2015-Apr-25 08:32N 51°52' W 008°20'0 0.0
2015-Apr-25 07:32N 51°52' W 008°20'0 0.0
2015-Apr-25 06:32N 51°52' W 008°20'0 0.0
2015-Apr-25 05:32N 51°52' W 008°20'0 0.0
2015-Apr-25 04:32N 51°52' W 008°20'0 0.0
2015-Apr-25 03:32N 51°52' W 008°20'0 0.0
2015-Apr-25 02:32N 51°52' W 008°20'0 0.0
2015-Apr-25 01:32N 51°52' W 008°20'0 0.0
2015-Apr-25 00:32N 51°52' W 008°20'0 0.0
2015-Apr-24 23:32N 51°52' W 008°20'0 0.0
2015-Apr-24 22:32N 51°52' W 008°20'0 0.0
2015-Apr-24 21:32N 51°52' W 008°20'0 0.0
2015-Apr-24 20:32N 51°52' W 008°20'0 0.0
2015-Apr-24 19:32N 51°52' W 008°20'0 0.0
2015-Apr-24 18:32N 51°52' W 008°20'0 0.0
2015-Apr-24 17:32N 51°52' W 008°20'0 0.0
2015-Apr-24 16:32N 51°52' W 008°20'6 0.5
2015-Apr-24 05:23N 51°47' W 008°16'1 1.4
2015-Apr-24 04:33N 51°46' W 008°15'5 5.0
2015-Apr-24 03:33N 51°41' W 008°15'7 6.6
2015-Apr-24 02:33N 51°35' W 008°16'7 6.6
2015-Apr-24 01:33N 51°28' W 008°16'  
Track history (hours):
 
Tides and Currents Weather Stations Pressure Air Temp Water Temp Dewpoint Dewpoint Depression Visibility Wind Speed Wind Dir Waves Ship Positions

Blue Bay

Last reported at 2015-May-03 06:17 UTC. Time now 2015-May-03 10:50 UTC.
Position N 51°22' W 003°14'.

Length 89 m; draft 3.5 m.

Type: Cargo ship. MMSI: 304519000.

Date/timePositionNaut miles runAvg speedWind from/ knotsBaromVisibWave heightAir tempDewpointWater temp
2015-May-03 06:17N 51°22' W 003°14'78 7.0
2015-May-02 19:11N 50°49' W 005°06'4 6.4
2015-May-02 18:33N 50°46' W 005°11'8 8.1
2015-May-02 17:33N 50°40' W 005°20'1111.0
2015-May-02 16:33N 50°32' W 005°33'455 9.7
2015-Apr-30 17:33N 43°22' W 001°56'1 1.0
2015-Apr-30 16:22N 43°21' W 001°55'0 0.0
2015-Apr-30 15:31N 43°21' W 001°55'0 0.0
2015-Apr-30 14:19N 43°21' W 001°55'0 0.1
2015-Apr-30 12:22N 43°21' W 001°55'0 0.0
2015-Apr-30 07:10N 43°21' W 001°55'0 0.0
2015-Apr-30 06:25N 43°21' W 001°55'0 0.0
2015-Apr-30 02:19N 43°21' W 001°55'0 0.0
2015-Apr-29 22:16N 43°21' W 001°55'0 0.0
2015-Apr-29 20:22N 43°21' W 001°55'0 0.0
2015-Apr-29 19:34N 43°21' W 001°55'2 2.0
2015-Apr-29 18:31N 43°19' W 001°55'0 0.0
2015-Apr-29 17:27N 43°19' W 001°55'0 0.0
2015-Apr-29 16:30N 43°19' W 001°55'0 0.0
2015-Apr-29 15:30N 43°19' W 001°55'0 0.0
2015-Apr-29 14:33N 43°19' W 001°55'0 0.0
2015-Apr-29 13:30N 43°19' W 001°55'0 0.0
2015-Apr-29 12:30N 43°19' W 001°55'0 0.0
2015-Apr-29 11:30N 43°19' W 001°55'0 0.0
2015-Apr-29 10:33N 43°19' W 001°55'0 0.0
2015-Apr-29 09:33N 43°19' W 001°55'0 0.0
2015-Apr-29 08:33N 43°19' W 001°55'0 0.0
2015-Apr-29 07:33N 43°19' W 001°55'0 0.0
2015-Apr-29 06:27N 43°19' W 001°55'0 0.0
2015-Apr-29 05:30N 43°19' W 001°55'0 0.0
2015-Apr-29 04:33N 43°19' W 001°55'0 0.0
2015-Apr-29 03:33N 43°19' W 001°55'0 0.0
2015-Apr-29 02:33N 43°19' W 001°55'0 0.0
2015-Apr-29 01:30N 43°19' W 001°55'0 0.0
2015-Apr-29 00:30N 43°19' W 001°55'0 0.0
2015-Apr-28 23:33N 43°19' W 001°55'0 0.0
2015-Apr-28 22:30N 43°19' W 001°55'0 0.0
2015-Apr-28 21:24N 43°19' W 001°55'0 0.0
2015-Apr-28 20:33N 43°19' W 001°55'0 0.0
2015-Apr-28 19:30N 43°19' W 001°55'0 0.0
2015-Apr-28 18:24N 43°19' W 001°55'0 0.0
2015-Apr-28 17:33N 43°19' W 001°55'0 0.0
2015-Apr-28 16:33N 43°19' W 001°55'0 0.0
2015-Apr-28 15:30N 43°19' W 001°55'0 0.0
2015-Apr-28 14:33N 43°19' W 001°55'0 0.0
2015-Apr-28 13:24N 43°19' W 001°55'0 0.0
2015-Apr-28 12:30N 43°19' W 001°55'0 0.0
2015-Apr-28 11:30N 43°19' W 001°55'2 1.5
2015-Apr-28 10:15N 43°21' W 001°56'1 1.3
2015-Apr-28 09:33N 43°21' W 001°57'2 2.1
2015-Apr-28 08:32N 43°23' W 001°58'  
2015-Apr-26 02:27N 51°14' W 007°49'9 9.9
2015-Apr-26 01:33N 51°22' W 007°53'10 9.8
2015-Apr-26 00:34N 51°31' W 008°01'10 9.8
2015-Apr-25 23:33N 51°39' W 008°09'10 9.7
2015-Apr-25 22:33N 51°48' W 008°16'5 4.6
2015-Apr-25 21:32N 51°52' W 008°20'0 0.0
2015-Apr-25 20:32N 51°52' W 008°20'0 0.0
2015-Apr-25 19:32N 51°52' W 008°20'0 0.0
2015-Apr-25 18:32N 51°52' W 008°20'0 0.0
2015-Apr-25 17:32N 51°52' W 008°20'0 0.0
2015-Apr-25 16:32N 51°52' W 008°20'0 0.0
2015-Apr-25 15:32N 51°52' W 008°20'0 0.0
2015-Apr-25 14:32N 51°52' W 008°20'0 0.0
2015-Apr-25 13:32N 51°52' W 008°20'0 0.0
2015-Apr-25 12:32N 51°52' W 008°20'0 0.0
2015-Apr-25 11:32N 51°52' W 008°20'0 0.0
2015-Apr-25 10:32N 51°52' W 008°20'0 0.0
2015-Apr-25 09:32N 51°52' W 008°20'0 0.0
2015-Apr-25 08:32N 51°52' W 008°20'0 0.0
2015-Apr-25 07:32N 51°52' W 008°20'0 0.0
2015-Apr-25 06:32N 51°52' W 008°20'0 0.0
2015-Apr-25 05:32N 51°52' W 008°20'0 0.0
2015-Apr-25 04:32N 51°52' W 008°20'0 0.0
2015-Apr-25 03:32N 51°52' W 008°20'0 0.0
2015-Apr-25 02:32N 51°52' W 008°20'0 0.0
2015-Apr-25 01:32N 51°52' W 008°20'0 0.0
2015-Apr-25 00:32N 51°52' W 008°20'0 0.0
2015-Apr-24 23:32N 51°52' W 008°20'0 0.0
2015-Apr-24 22:32N 51°52' W 008°20'0 0.0
2015-Apr-24 21:32N 51°52' W 008°20'0 0.0
2015-Apr-24 20:32N 51°52' W 008°20'0 0.0
2015-Apr-24 19:32N 51°52' W 008°20'0 0.0
2015-Apr-24 18:32N 51°52' W 008°20'0 0.0
2015-Apr-24 17:32N 51°52' W 008°20'0 0.0
2015-Apr-24 16:32N 51°52' W 008°20'6 0.5
2015-Apr-24 05:23N 51°47' W 008°16'1 1.4
2015-Apr-24 04:33N 51°46' W 008°15'5 5.0
2015-Apr-24 03:33N 51°41' W 008°15'7 6.6
2015-Apr-24 02:33N 51°35' W 008°16'7 6.6
2015-Apr-24 01:33N 51°28' W 008°16'  

Dump ship's entire track history